createdAt,value
2019-03-22T00:00:33.564Z,3.37
2019-03-22T00:03:02.349Z,4.63
2019-03-22T00:05:31.141Z,1.03
2019-03-22T00:07:59.894Z,5.87
2019-03-22T00:10:28.689Z,4.00
2019-03-22T00:12:57.418Z,3.03
2019-03-22T00:15:26.449Z,3.17
2019-03-22T00:17:55.180Z,2.50
2019-03-22T00:20:23.904Z,8.30
2019-03-22T00:22:52.650Z,6.53
2019-03-22T00:25:21.454Z,5.33
2019-03-22T00:27:50.249Z,8.77
2019-03-22T00:30:18.998Z,8.53
2019-03-22T00:32:47.724Z,8.90
2019-03-22T00:35:16.542Z,9.60
2019-03-22T00:37:45.291Z,14.30
2019-03-22T00:40:15.485Z,12.17
2019-03-22T00:42:44.233Z,9.60
2019-03-22T00:45:13.090Z,8.30
2019-03-22T00:47:41.814Z,7.27
2019-03-22T00:50:12.164Z,4.50
2019-03-22T00:52:40.910Z,13.27
2019-03-22T00:55:10.037Z,11.77
2019-03-22T00:57:38.756Z,7.37
2019-03-22T01:00:09.641Z,6.53
2019-03-22T01:02:38.488Z,9.60
2019-03-22T01:05:08.917Z,10.53
2019-03-22T01:07:37.788Z,8.63
2019-03-22T01:10:08.900Z,20.73
2019-03-22T01:12:37.665Z,7.77
2019-03-22T01:15:08.519Z,14.70
2019-03-22T01:17:37.239Z,9.37
2019-03-22T01:20:08.358Z,11.90
2019-03-22T01:22:37.177Z,8.20
2019-03-22T01:25:07.375Z,10.17
2019-03-22T01:27:40.587Z,9.30
2019-03-22T01:30:15.071Z,7.73
2019-03-22T01:32:43.868Z,10.23
2019-03-22T01:35:12.893Z,11.87
2019-03-22T01:37:41.642Z,8.70
2019-03-22T01:40:11.673Z,16.40
2019-03-22T01:42:40.556Z,12.30
2019-03-22T01:45:11.871Z,8.67
2019-03-22T01:47:40.716Z,13.90
2019-03-22T01:50:12.382Z,7.87
2019-03-22T01:52:41.126Z,7.97
2019-03-22T01:55:10.654Z,7.23
2019-03-22T01:57:39.384Z,10.07
2019-03-22T02:00:11.413Z,11.97
2019-03-22T02:02:40.430Z,5.77
2019-03-22T02:05:09.361Z,10.57
2019-03-22T02:07:38.110Z,10.27
2019-03-22T02:10:09.500Z,7.73
2019-03-22T02:12:38.226Z,10.77
2019-03-22T02:15:09.407Z,8.10
2019-03-22T02:17:38.155Z,6.83
2019-03-22T02:20:08.077Z,12.90
2019-03-22T02:22:36.805Z,12.23
2019-03-22T02:25:07.620Z,15.57
2019-03-22T02:27:36.370Z,15.83
2019-03-22T02:30:07.773Z,14.03
2019-03-22T02:32:36.519Z,8.57
2019-03-22T02:35:07.038Z,14.90
2019-03-22T02:37:35.799Z,21.90
2019-03-22T02:40:06.954Z,14.37
2019-03-22T02:42:35.778Z,15.23
2019-03-22T02:45:07.484Z,12.50
2019-03-22T02:47:36.235Z,15.67
2019-03-22T02:50:18.137Z,20.80
2019-03-22T02:52:38.239Z,19.33
2019-03-22T02:55:08.287Z,12.77
2019-03-22T02:57:37.115Z,16.43
2019-03-22T03:00:08.709Z,11.30
2019-03-22T03:02:37.502Z,19.33
2019-03-22T03:05:08.222Z,18.70
2019-03-22T03:07:37.177Z,15.40
2019-03-22T03:10:14.358Z,27.13
2019-03-22T03:12:43.717Z,13.47
2019-03-22T03:15:16.742Z,24.50
2019-03-22T03:17:45.444Z,35.50
2019-03-22T03:20:15.847Z,23.63
2019-03-22T03:22:44.563Z,14.80
2019-03-22T03:25:14.292Z,38.70
2019-03-22T03:27:43.054Z,27.80
2019-03-22T03:30:22.077Z,19.77
2019-03-22T03:32:50.879Z,24.83
2019-03-22T03:35:19.710Z,37.00
2019-03-22T03:37:48.445Z,21.27
2019-03-22T03:40:18.603Z,32.77
2019-03-22T03:42:47.329Z,18.63
2019-03-22T03:45:33.482Z,24.93
2019-03-22T03:48:03.772Z,16.47
2019-03-22T03:50:32.694Z,21.17
2019-03-22T03:53:01.450Z,16.87
2019-03-22T03:55:30.242Z,18.67
2019-03-22T03:57:59.065Z,24.47
2019-03-22T04:00:27.914Z,18.30
2019-03-22T04:02:56.747Z,19.63
2019-03-22T04:05:25.468Z,27.97
2019-03-22T04:07:54.227Z,15.27
2019-03-22T04:10:23.005Z,13.07
2019-03-22T04:12:51.729Z,24.83
2019-03-22T04:15:20.543Z,18.47
2019-03-22T04:17:49.269Z,30.77
2019-03-22T04:20:18.044Z,23.20
2019-03-22T04:22:46.799Z,27.83
2019-03-22T04:25:15.530Z,12.63
2019-03-22T04:27:44.255Z,12.43
2019-03-22T04:30:13.506Z,25.97
2019-03-22T04:32:44.573Z,17.33
2019-03-22T04:35:13.343Z,20.43
2019-03-22T04:37:42.102Z,23.20
2019-03-22T04:40:28.381Z,25.87
2019-03-22T04:42:57.335Z,14.77
2019-03-22T04:45:28.666Z,16.33
2019-03-22T04:48:06.010Z,13.77
2019-03-22T04:50:37.810Z,8.97
2019-03-22T04:53:09.260Z,22.00
2019-03-22T04:55:40.674Z,6.73
2019-03-22T04:58:11.561Z,8.80
2019-03-22T05:00:40.905Z,8.90
2019-03-22T05:03:10.855Z,7.73
2019-03-22T05:05:39.975Z,6.77
2019-03-22T05:08:09.225Z,3.67
2019-03-22T05:10:38.357Z,6.67
2019-03-22T05:13:10.013Z,4.90
2019-03-22T05:15:39.262Z,5.50
2019-03-22T05:18:08.581Z,5.60
2019-03-22T05:20:38.906Z,6.87
2019-03-22T05:23:08.845Z,3.63
2019-03-22T05:25:38.473Z,4.43
2019-03-22T05:28:09.723Z,3.80
2019-03-22T05:30:53.678Z,4.03
2019-03-22T05:33:22.420Z,5.10
2019-03-22T05:35:51.147Z,10.33
2019-03-22T05:38:19.937Z,1.33
2019-03-22T05:40:48.687Z,2.60
2019-03-22T05:43:17.413Z,2.77
2019-03-22T05:45:48.029Z,1.30
2019-03-22T05:48:16.549Z,5.83
2019-03-22T05:50:45.265Z,4.77
2019-03-22T05:53:13.986Z,4.07
2019-03-22T05:55:42.734Z,2.07
2019-03-22T05:58:11.457Z,0.80
2019-03-22T06:00:40.252Z,2.10
2019-03-22T06:03:09.039Z,3.73
2019-03-22T06:05:37.753Z,1.37
2019-03-22T06:08:06.470Z,3.27
2019-03-22T06:10:35.217Z,4.03
2019-03-22T06:13:03.938Z,3.77
2019-03-22T06:15:32.662Z,3.30
2019-03-22T06:18:01.462Z,2.67
2019-03-22T06:20:30.184Z,2.70
2019-03-22T06:22:58.910Z,1.17
2019-03-22T06:25:27.685Z,5.40
2019-03-22T06:27:56.848Z,2.17
2019-03-22T06:30:25.563Z,1.07
2019-03-22T06:32:54.314Z,6.07
2019-03-22T06:35:23.035Z,2.17
2019-03-22T06:37:51.750Z,4.67
2019-03-22T06:40:20.506Z,2.23
2019-03-22T06:42:49.248Z,1.07
2019-03-22T06:45:17.960Z,3.27
2019-03-22T06:47:46.711Z,3.73
2019-03-22T06:50:15.430Z,4.53
2019-03-22T06:52:44.155Z,6.07
2019-03-22T06:55:12.897Z,2.93
2019-03-22T06:57:41.615Z,3.60
2019-03-22T07:00:14.097Z,5.80
2019-03-22T07:02:42.863Z,4.00
2019-03-22T07:05:13.661Z,5.10
2019-03-22T07:07:41.982Z,5.37
2019-03-22T07:10:11.641Z,3.77
2019-03-22T07:12:40.431Z,2.87
2019-03-22T07:15:09.145Z,4.07
2019-03-22T07:17:37.909Z,10.70
2019-03-22T07:20:07.328Z,3.03
2019-03-22T07:22:36.049Z,4.40
2019-03-22T07:25:07.025Z,6.23
2019-03-22T07:27:35.782Z,5.37
2019-03-22T07:30:18.157Z,6.87
2019-03-22T07:32:37.634Z,10.47
2019-03-22T07:35:06.887Z,8.07
2019-03-22T07:37:35.602Z,6.20
2019-03-22T07:40:09.789Z,13.07
2019-03-22T07:42:38.539Z,5.07
2019-03-22T07:45:08.705Z,5.17
2019-03-22T07:47:37.814Z,4.87
2019-03-22T07:50:08.706Z,7.57
2019-03-22T07:52:37.427Z,7.60
2019-03-22T07:55:07.276Z,7.87
2019-03-22T07:57:36.000Z,4.87
2019-03-22T08:00:08.069Z,7.20
2019-03-22T08:02:36.824Z,5.77
2019-03-22T08:05:06.934Z,3.43
2019-03-22T08:07:35.750Z,9.27
2019-03-22T08:10:06.282Z,4.90
2019-03-22T08:12:35.006Z,7.10
2019-03-22T08:15:04.118Z,7.93
2019-03-22T08:17:32.964Z,8.70
2019-03-22T08:20:01.734Z,8.93
2019-03-22T08:22:30.473Z,6.80
2019-03-22T08:24:59.192Z,5.47
2019-03-22T08:27:28.119Z,4.07
2019-03-22T08:29:56.852Z,6.70
2019-03-22T08:32:25.621Z,5.33
2019-03-22T08:34:54.321Z,3.40
2019-03-22T08:37:23.059Z,10.90
2019-03-22T08:39:51.804Z,5.50
2019-03-22T08:42:20.618Z,4.00
2019-03-22T08:44:49.405Z,8.57
2019-03-22T08:47:18.178Z,5.07
2019-03-22T08:49:46.988Z,5.20
2019-03-22T08:52:15.865Z,7.60
2019-03-22T08:54:44.617Z,7.00
2019-03-22T08:57:13.406Z,5.17
2019-03-22T08:59:42.133Z,12.27
2019-03-22T09:02:10.895Z,9.97
2019-03-22T09:04:39.618Z,16.17
2019-03-22T09:07:08.337Z,9.87
2019-03-22T09:09:41.633Z,5.90
2019-03-22T09:12:07.449Z,6.47
2019-03-22T09:14:36.192Z,9.33
2019-03-22T09:17:04.948Z,12.83
2019-03-22T09:19:33.660Z,12.33
2019-03-22T09:22:02.382Z,12.87
2019-03-22T09:24:39.097Z,5.93
2019-03-22T09:27:01.518Z,8.17
2019-03-22T09:29:30.247Z,5.43
2019-03-22T09:31:59.009Z,3.67
2019-03-22T09:34:33.667Z,1.77
2019-03-22T09:36:58.100Z,3.77
2019-03-22T09:39:26.856Z,1.33
2019-03-22T09:41:55.638Z,3.40
2019-03-22T09:44:24.380Z,3.30
2019-03-22T09:46:54.183Z,0.30
2019-03-22T09:49:22.978Z,1.00
2019-03-22T09:51:51.701Z,1.70
2019-03-22T09:54:20.462Z,1.63
2019-03-22T09:56:49.211Z,1.10
2019-03-22T09:59:17.946Z,1.07
2019-03-22T10:01:46.688Z,1.67
2019-03-22T10:04:15.863Z,4.93
2019-03-22T10:06:44.554Z,0.30
2019-03-22T10:09:13.397Z,1.90
2019-03-22T10:11:42.528Z,1.33
2019-03-22T10:14:11.291Z,2.23
2019-03-22T10:16:40.042Z,0.53
2019-03-22T10:19:08.772Z,1.20
2019-03-22T10:21:37.556Z,2.57
2019-03-22T10:24:06.920Z,1.20
2019-03-22T10:26:35.642Z,1.63
2019-03-22T10:29:06.965Z,0.50
2019-03-22T10:31:37.387Z,2.17
2019-03-22T10:34:05.443Z,2.73
2019-03-22T10:36:34.135Z,0.77
2019-03-22T10:39:03.659Z,0.80
2019-03-22T10:41:34.124Z,1.27
2019-03-22T10:44:02.833Z,4.40
2019-03-22T10:46:31.577Z,3.23
2019-03-22T10:49:00.262Z,0.57
2019-03-22T10:51:29.041Z,0.93
2019-03-22T10:53:57.781Z,1.73
2019-03-22T10:56:26.578Z,7.13
2019-03-22T10:58:55.308Z,1.67
2019-03-22T11:01:24.061Z,2.87
2019-03-22T11:03:52.963Z,0.70
2019-03-22T11:06:26.258Z,3.33
2019-03-22T11:08:52.191Z,1.47
2019-03-22T11:11:20.914Z,1.13
2019-03-22T11:13:49.641Z,2.57
2019-03-22T11:16:18.401Z,1.43
2019-03-22T11:18:47.122Z,1.70
2019-03-22T11:21:15.852Z,3.93
2019-03-22T11:23:44.597Z,5.50
2019-03-22T11:26:13.318Z,2.30
2019-03-22T11:28:42.145Z,4.90
2019-03-22T11:31:10.873Z,2.60
2019-03-22T11:33:39.679Z,3.13
2019-03-22T11:36:08.431Z,2.23
2019-03-22T11:38:37.153Z,2.30
2019-03-22T11:41:05.879Z,2.50
2019-03-22T11:43:34.702Z,3.30
2019-03-22T11:46:03.422Z,0.83
2019-03-22T11:48:32.193Z,4.20
2019-03-22T11:51:01.021Z,0.83
2019-03-22T11:53:29.750Z,4.10
2019-03-22T11:55:58.561Z,2.23
2019-03-22T11:58:27.381Z,6.17
2019-03-22T12:00:56.285Z,3.33
2019-03-22T12:03:25.009Z,2.60
2019-03-22T12:05:53.774Z,5.37
2019-03-22T12:08:22.586Z,4.87
2019-03-22T12:10:51.305Z,1.80
2019-03-22T12:13:20.070Z,1.00
2019-03-22T12:15:48.793Z,2.90
2019-03-22T12:18:17.512Z,1.50
2019-03-22T12:20:46.277Z,2.07
2019-03-22T12:23:15.089Z,0.73
2019-03-22T12:25:43.882Z,5.90
2019-03-22T12:28:12.699Z,2.20
2019-03-22T12:30:41.692Z,6.50
2019-03-22T12:33:10.425Z,2.10
2019-03-22T12:35:39.189Z,1.77
2019-03-22T12:38:07.913Z,2.23
2019-03-22T12:40:36.749Z,1.37
2019-03-22T12:43:05.498Z,2.20
2019-03-22T12:45:34.691Z,2.33
2019-03-22T12:48:03.485Z,1.63
2019-03-22T12:50:32.337Z,2.63
2019-03-22T12:53:01.134Z,1.03
2019-03-22T12:55:29.855Z,2.37
2019-03-22T12:57:59.496Z,1.13
2019-03-22T13:00:28.745Z,0.67
2019-03-22T13:02:57.470Z,3.53
2019-03-22T13:05:26.296Z,0.83
2019-03-22T13:07:55.085Z,2.20
2019-03-22T13:10:26.150Z,2.03
2019-03-22T13:12:54.918Z,0.67
2019-03-22T13:15:23.650Z,2.70
2019-03-22T13:17:52.450Z,0.73
2019-03-22T13:20:21.200Z,2.00
2019-03-22T13:22:49.920Z,1.87
2019-03-22T13:25:21.110Z,0.87
2019-03-22T13:27:49.529Z,4.60
2019-03-22T13:30:37.589Z,3.00
2019-03-22T13:33:06.722Z,1.47
2019-03-22T13:35:35.519Z,0.30
2019-03-22T13:38:04.441Z,1.67
2019-03-22T13:40:33.195Z,2.60
2019-03-22T13:43:01.950Z,1.53
2019-03-22T13:45:30.685Z,1.40
2019-03-22T13:47:59.443Z,6.20
2019-03-22T13:50:28.230Z,0.93
2019-03-22T13:52:57.010Z,1.10
2019-03-22T13:55:25.765Z,0.87
2019-03-22T13:57:54.558Z,1.47
2019-03-22T14:00:23.316Z,0.80
2019-03-22T14:03:02.106Z,1.23
2019-03-22T14:05:22.506Z,2.30
2019-03-22T14:07:51.269Z,0.93
2019-03-22T14:10:36.605Z,3.63
2019-03-22T14:13:06.562Z,1.43
2019-03-22T14:15:35.330Z,1.53
2019-03-22T14:18:04.554Z,0.50
2019-03-22T14:20:33.321Z,2.33
2019-03-22T14:23:02.045Z,0.10
2019-03-22T14:25:30.774Z,0.30
2019-03-22T14:27:59.525Z,1.60
2019-03-22T14:30:28.261Z,0.57
2019-03-22T14:32:56.985Z,3.00
2019-03-22T14:35:25.841Z,0.10
2019-03-22T14:37:54.622Z,0.63
2019-03-22T14:40:23.349Z,0.10
2019-03-22T14:42:52.094Z,0.50
2019-03-22T14:45:20.842Z,0.40
2019-03-22T14:47:49.641Z,1.80
2019-03-22T14:50:18.479Z,1.27
2019-03-22T14:52:47.242Z,0.10
2019-03-22T14:55:16.016Z,1.60
2019-03-22T14:57:50.000Z,0.00
2019-03-22T15:00:15.473Z,0.00
2019-03-22T15:02:44.211Z,0.33
2019-03-22T15:05:13.346Z,3.13
2019-03-22T15:07:42.097Z,1.47
2019-03-22T15:10:13.104Z,0.40
2019-03-22T15:12:41.914Z,0.40
2019-03-22T15:15:13.078Z,0.20
2019-03-22T15:18:01.989Z,0.40
2019-03-22T15:20:48.577Z,0.20
2019-03-22T15:23:22.123Z,0.40
2019-03-22T15:26:10.673Z,1.00
2019-03-22T15:28:44.016Z,0.00
2019-03-22T15:31:30.730Z,0.40
2019-03-22T15:34:15.972Z,0.87
2019-03-22T15:36:52.088Z,0.30
2019-03-22T15:39:31.703Z,0.87
2019-03-22T15:42:00.526Z,2.83
2019-03-22T15:44:29.365Z,0.30
2019-03-22T15:46:58.117Z,0.50
2019-03-22T15:49:26.913Z,1.60
2019-03-22T15:51:55.710Z,2.10
2019-03-22T15:54:24.465Z,3.93
2019-03-22T15:56:53.201Z,1.20
2019-03-22T15:59:21.917Z,0.57
2019-03-22T16:01:50.708Z,1.77
2019-03-22T16:04:19.443Z,1.40
2019-03-22T16:06:48.173Z,0.90
2019-03-22T16:09:16.913Z,2.50
2019-03-22T16:11:45.645Z,2.83
2019-03-22T16:14:14.685Z,1.80
2019-03-22T16:16:43.545Z,6.03
2019-03-22T16:19:12.400Z,3.07
2019-03-22T16:21:41.197Z,5.40
2019-03-22T16:24:09.943Z,7.23
2019-03-22T16:26:38.781Z,6.93
2019-03-22T16:29:07.504Z,5.10
2019-03-22T16:31:36.325Z,6.70
2019-03-22T16:34:05.253Z,4.27
2019-03-22T16:36:33.975Z,3.73
2019-03-22T16:39:02.798Z,4.63
2019-03-22T16:41:31.594Z,4.90
2019-03-22T16:44:00.313Z,2.73
2019-03-22T16:46:29.140Z,5.33
2019-03-22T16:48:58.030Z,7.27
2019-03-22T16:51:26.777Z,4.47
2019-03-22T16:53:55.527Z,1.80
2019-03-22T16:56:24.253Z,4.90
2019-03-22T16:58:52.964Z,3.83
2019-03-22T17:01:21.723Z,6.77
2019-03-22T17:03:50.512Z,3.47
2019-03-22T17:06:19.237Z,5.87
2019-03-22T17:08:47.994Z,5.80
2019-03-22T17:11:16.904Z,5.80
2019-03-22T17:13:46.227Z,7.83
2019-03-22T17:16:14.974Z,5.03
2019-03-22T17:18:43.705Z,5.27
2019-03-22T17:21:12.469Z,4.77
2019-03-22T17:23:41.239Z,6.27
2019-03-22T17:26:10.163Z,3.43
2019-03-22T17:28:38.904Z,4.60
2019-03-22T17:31:07.647Z,3.63
2019-03-22T17:33:36.437Z,7.47
2019-03-22T17:36:05.336Z,7.73
2019-03-22T17:38:34.085Z,5.57
2019-03-22T17:41:02.882Z,8.30
2019-03-22T17:43:33.045Z,4.50
2019-03-22T17:46:01.730Z,6.20
2019-03-22T17:48:30.449Z,4.00
2019-03-22T17:50:59.234Z,3.27
2019-03-22T17:53:27.965Z,4.27
2019-03-22T17:55:56.701Z,7.07
2019-03-22T17:58:25.505Z,10.83
2019-03-22T18:00:54.557Z,5.57
2019-03-22T18:03:23.342Z,14.37
2019-03-22T18:05:52.103Z,6.67
2019-03-22T18:08:20.821Z,11.37
2019-03-22T18:10:49.595Z,6.20
2019-03-22T18:13:18.426Z,3.97
2019-03-22T18:15:47.144Z,4.53
2019-03-22T18:18:15.953Z,6.80
2019-03-22T18:20:44.793Z,6.40
2019-03-22T18:23:13.520Z,8.87
2019-03-22T18:25:42.321Z,5.37
2019-03-22T18:28:11.070Z,15.07
2019-03-22T18:30:39.807Z,10.17
2019-03-22T18:33:08.565Z,9.67
2019-03-22T18:35:37.335Z,14.20
2019-03-22T18:38:06.117Z,10.50
2019-03-22T18:40:34.918Z,13.40
2019-03-22T18:43:03.671Z,7.87
2019-03-22T18:45:32.433Z,6.03
2019-03-22T18:48:01.155Z,4.40
2019-03-22T18:50:29.902Z,11.57
2019-03-22T18:52:58.636Z,4.43
2019-03-22T18:55:27.434Z,11.53
2019-03-22T18:57:57.924Z,6.43
2019-03-22T19:00:26.625Z,4.77
2019-03-22T19:02:55.744Z,5.30
2019-03-22T19:05:24.499Z,11.43
2019-03-22T19:07:53.230Z,11.10
2019-03-22T19:10:21.953Z,6.80
2019-03-22T19:12:50.693Z,8.47
2019-03-22T19:15:19.428Z,7.60
2019-03-22T19:17:48.205Z,7.77
2019-03-22T19:20:17.061Z,10.17
2019-03-22T19:22:45.786Z,8.77
2019-03-22T19:25:14.648Z,13.30
2019-03-22T19:27:43.605Z,6.90
2019-03-22T19:30:16.056Z,13.80
2019-03-22T19:32:44.785Z,9.57
2019-03-22T19:35:15.202Z,19.47
2019-03-22T19:37:45.908Z,15.10
2019-03-22T19:40:15.675Z,12.63
2019-03-22T19:42:44.437Z,13.97
2019-03-22T19:45:16.624Z,14.67
2019-03-22T19:47:45.147Z,20.17
2019-03-22T19:50:15.529Z,15.73
2019-03-22T19:52:44.286Z,9.07
2019-03-22T19:55:14.077Z,21.17
2019-03-22T19:57:42.833Z,12.37
2019-03-22T20:00:19.612Z,16.23
2019-03-22T20:02:49.297Z,7.43
2019-03-22T20:05:32.160Z,14.73
2019-03-22T20:08:01.820Z,12.23
2019-03-22T20:10:30.761Z,11.03
2019-03-22T20:12:59.477Z,15.07
2019-03-22T20:15:28.230Z,7.53
2019-03-22T20:17:57.024Z,9.13
2019-03-22T20:20:25.737Z,15.13
2019-03-22T20:22:54.495Z,9.87
2019-03-22T20:25:23.411Z,20.47
2019-03-22T20:27:53.616Z,24.60
2019-03-22T20:30:22.552Z,22.93
2019-03-22T20:32:51.368Z,12.27
2019-03-22T20:35:20.111Z,14.03
2019-03-22T20:37:48.857Z,14.27
2019-03-22T20:40:20.553Z,8.30
2019-03-22T20:42:49.274Z,9.67
2019-03-22T20:45:24.097Z,9.27
2019-03-22T20:47:48.515Z,12.93
2019-03-22T20:50:20.076Z,8.97
2019-03-22T20:52:48.855Z,6.53
2019-03-22T20:55:17.584Z,10.10
2019-03-22T20:57:48.164Z,12.93
2019-03-22T21:00:17.722Z,2.97
2019-03-22T21:02:46.445Z,5.67
2019-03-22T21:05:25.906Z,5.97
2019-03-22T21:07:46.558Z,2.93
2019-03-22T21:10:15.293Z,4.93
2019-03-22T21:12:44.016Z,4.00
2019-03-22T21:15:23.461Z,5.40
2019-03-22T21:17:43.833Z,3.77
2019-03-22T21:20:12.791Z,3.23
2019-03-22T21:25:15.462Z,7.57
2019-03-22T21:27:44.196Z,6.37
2019-03-22T21:30:14.740Z,14.20
2019-03-22T21:32:45.451Z,6.67
2019-03-22T21:35:22.353Z,8.77
2019-03-22T21:37:44.364Z,8.87
2019-03-22T21:40:13.419Z,7.07
2019-03-22T21:42:42.214Z,4.27
2019-03-22T21:45:11.626Z,8.50
2019-03-22T21:47:40.455Z,14.00
2019-03-22T21:50:10.177Z,7.30
2019-03-22T21:52:38.983Z,9.50
2019-03-22T21:55:08.649Z,9.13
2019-03-22T21:57:37.378Z,3.87
2019-03-22T22:00:14.053Z,7.23
2019-03-22T22:02:42.793Z,6.17
2019-03-22T22:05:11.506Z,9.13
2019-03-22T22:07:40.379Z,8.43
2019-03-22T22:10:10.674Z,10.93
2019-03-22T22:12:39.473Z,9.17
2019-03-22T22:15:13.028Z,14.37
2019-03-22T22:17:41.855Z,12.40
2019-03-22T22:20:11.261Z,14.17
2019-03-22T22:22:40.506Z,14.33
2019-03-22T22:25:09.755Z,10.80
2019-03-22T22:27:38.477Z,12.40
2019-03-22T22:30:11.166Z,10.10
2019-03-22T22:32:40.022Z,12.00
2019-03-22T22:35:09.250Z,12.20
2019-03-22T22:37:38.053Z,4.70
2019-03-22T22:40:08.775Z,11.27
2019-03-22T22:42:37.511Z,15.33
2019-03-22T22:45:08.604Z,12.17
2019-03-22T22:47:37.458Z,9.93
2019-03-22T22:50:07.587Z,10.97
2019-03-22T22:52:36.506Z,8.60
2019-03-22T22:55:07.054Z,8.60
2019-03-22T22:57:35.878Z,3.97
2019-03-22T23:00:07.551Z,6.13
2019-03-22T23:02:36.337Z,10.10
2019-03-22T23:05:06.381Z,13.43
2019-03-22T23:07:35.115Z,8.30
2019-03-22T23:10:05.102Z,10.60
2019-03-22T23:12:33.810Z,8.77
2019-03-22T23:15:02.601Z,9.57
2019-03-22T23:17:31.364Z,7.63
2019-03-22T23:20:00.170Z,5.17
2019-03-22T23:22:29.037Z,14.80
2019-03-22T23:24:57.787Z,12.33
2019-03-22T23:27:26.528Z,11.30
2019-03-22T23:29:55.261Z,11.87
2019-03-22T23:32:25.983Z,8.80
2019-03-22T23:34:58.965Z,7.80
2019-03-22T23:37:24.971Z,9.40
2019-03-22T23:39:53.715Z,11.67
2019-03-22T23:42:22.429Z,8.13
2019-03-22T23:44:51.235Z,8.73
2019-03-22T23:47:20.353Z,10.80
2019-03-22T23:49:49.095Z,10.37
2019-03-22T23:52:17.810Z,6.20
2019-03-22T23:54:46.587Z,9.83
2019-03-22T23:57:15.309Z,12.63
2019-03-22T23:59:44.082Z,8.10
